sensor_id;sensor_type;location;lat;lon;timestamp;pressure;altitude;pressure_sealevel;temperature;humidity
32933;BME280;19444;50.518;10.870;2022-07-24T00:00:17;96978.63;;;16.47;100.00
32933;BME280;19444;50.518;10.870;2022-07-24T00:03:14;96978.44;;;16.65;100.00
32933;BME280;19444;50.518;10.870;2022-07-24T00:06:11;96974.44;;;16.50;100.00
32933;BME280;19444;50.518;10.870;2022-07-24T00:09:08;96978.63;;;16.27;100.00
32933;BME280;19444;50.518;10.870;2022-07-24T00:12:06;96976.91;;;16.43;100.00
32933;BME280;19444;50.518;10.870;2022-07-24T00:15:04;96974.19;;;16.43;100.00
32933;BME280;19444;50.518;10.870;2022-07-24T00:18:01;96974.63;;;16.45;100.00
32933;BME280;19444;50.518;10.870;2022-07-24T00:20:58;96970.16;;;16.49;100.00
32933;BME280;19444;50.518;10.870;2022-07-24T00:23:55;96967.53;;;16.40;100.00
32933;BME280;19444;50.518;10.870;2022-07-24T00:26:52;96978.69;;;16.39;100.00
32933;BME280;19444;50.518;10.870;2022-07-24T00:29:49;96967.09;;;16.38;100.00
32933;BME280;19444;50.518;10.870;2022-07-24T00:32:46;96966.22;;;16.26;100.00
32933;BME280;19444;50.518;10.870;2022-07-24T00:35:43;96981.22;;;16.23;100.00
32933;BME280;19444;50.518;10.870;2022-07-24T00:38:40;96971.41;;;16.18;100.00
32933;BME280;19444;50.518;10.870;2022-07-24T00:41:38;96982.13;;;16.27;100.00
32933;BME280;19444;50.518;10.870;2022-07-24T00:44:35;96982.09;;;16.15;100.00
32933;BME280;19444;50.518;10.870;2022-07-24T00:47:32;96979.94;;;16.41;100.00
32933;BME280;19444;50.518;10.870;2022-07-24T00:50:30;96995.00;;;16.30;100.00
32933;BME280;19444;50.518;10.870;2022-07-24T00:53:27;96982.97;;;16.40;100.00
32933;BME280;19444;50.518;10.870;2022-07-24T00:56:24;96986.09;;;16.30;100.00
32933;BME280;19444;50.518;10.870;2022-07-24T00:59:22;96996.09;;;16.50;100.00
32933;BME280;19444;50.518;10.870;2022-07-24T01:02:19;96993.72;;;16.48;100.00
32933;BME280;19444;50.518;10.870;2022-07-24T01:05:17;96990.13;;;16.24;100.00
32933;BME280;19444;50.518;10.870;2022-07-24T01:08:15;96994.59;;;16.40;100.00
32933;BME280;19444;50.518;10.870;2022-07-24T01:11:12;96993.22;;;16.67;100.00
32933;BME280;19444;50.518;10.870;2022-07-24T01:14:10;96985.94;;;16.47;100.00
32933;BME280;19444;50.518;10.870;2022-07-24T01:17:08;96974.97;;;16.43;100.00
32933;BME280;19444;50.518;10.870;2022-07-24T01:20:07;96991.50;;;16.30;100.00
32933;BME280;19444;50.518;10.870;2022-07-24T01:23:05;96990.47;;;16.22;100.00
32933;BME280;19444;50.518;10.870;2022-07-24T01:26:02;96988.16;;;16.12;100.00
32933;BME280;19444;50.518;10.870;2022-07-24T01:28:59;96987.34;;;16.32;100.00
32933;BME280;19444;50.518;10.870;2022-07-24T01:31:56;96990.75;;;16.41;100.00
32933;BME280;19444;50.518;10.870;2022-07-24T01:34:53;96990.78;;;16.00;100.00
32933;BME280;19444;50.518;10.870;2022-07-24T01:37:53;96993.84;;;16.19;100.00
32933;BME280;19444;50.518;10.870;2022-07-24T01:40:51;96986.19;;;16.21;100.00
32933;BME280;19444;50.518;10.870;2022-07-24T01:43:48;96987.56;;;16.06;100.00
32933;BME280;19444;50.518;10.870;2022-07-24T01:46:45;96989.84;;;16.16;100.00
32933;BME280;19444;50.518;10.870;2022-07-24T01:49:42;96990.06;;;16.11;100.00
32933;BME280;19444;50.518;10.870;2022-07-24T01:52:40;96988.94;;;16.45;100.00
32933;BME280;19444;50.518;10.870;2022-07-24T01:55:37;96994.44;;;16.04;100.00
32933;BME280;19444;50.518;10.870;2022-07-24T01:58:34;96998.91;;;16.00;100.00
32933;BME280;19444;50.518;10.870;2022-07-24T02:01:31;96992.03;;;15.81;100.00
32933;BME280;19444;50.518;10.870;2022-07-24T02:04:28;96993.16;;;15.80;100.00
32933;BME280;19444;50.518;10.870;2022-07-24T02:07:25;96994.34;;;16.33;100.00
32933;BME280;19444;50.518;10.870;2022-07-24T02:10:22;96999.38;;;16.02;100.00
32933;BME280;19444;50.518;10.870;2022-07-24T02:13:19;96990.41;;;15.89;100.00
32933;BME280;19444;50.518;10.870;2022-07-24T02:16:16;96998.91;;;15.79;100.00
32933;BME280;19444;50.518;10.870;2022-07-24T02:19:14;96993.13;;;15.59;100.00
32933;BME280;19444;50.518;10.870;2022-07-24T02:22:11;96991.22;;;15.60;100.00
32933;BME280;19444;50.518;10.870;2022-07-24T02:25:08;96995.59;;;15.44;100.00
32933;BME280;19444;50.518;10.870;2022-07-24T02:28:05;96988.75;;;15.46;100.00
32933;BME280;19444;50.518;10.870;2022-07-24T02:31:02;96987.59;;;15.56;100.00
32933;BME280;19444;50.518;10.870;2022-07-24T02:34:00;96990.16;;;15.82;100.00
32933;BME280;19444;50.518;10.870;2022-07-24T02:36:57;96987.69;;;15.39;100.00
32933;BME280;19444;50.518;10.870;2022-07-24T02:39:53;96993.50;;;15.49;100.00
32933;BME280;19444;50.518;10.870;2022-07-24T02:42:50;96984.69;;;15.31;100.00
32933;BME280;19444;50.518;10.870;2022-07-24T02:45:47;96992.44;;;15.42;100.00
32933;BME280;19444;50.518;10.870;2022-07-24T02:48:47;96986.03;;;15.17;100.00
32933;BME280;19444;50.518;10.870;2022-07-24T02:51:44;96990.50;;;15.13;100.00
32933;BME280;19444;50.518;10.870;2022-07-24T02:54:42;96990.81;;;15.20;100.00
32933;BME280;19444;50.518;10.870;2022-07-24T02:57:39;97000.03;;;15.19;100.00
32933;BME280;19444;50.518;10.870;2022-07-24T03:00:36;96996.81;;;15.55;100.00
32933;BME280;19444;50.518;10.870;2022-07-24T03:03:33;96996.00;;;15.25;100.00
32933;BME280;19444;50.518;10.870;2022-07-24T03:06:30;96997.00;;;15.20;100.00
32933;BME280;19444;50.518;10.870;2022-07-24T03:09:27;96999.31;;;15.01;100.00
32933;BME280;19444;50.518;10.870;2022-07-24T03:12:24;97009.91;;;15.06;100.00
32933;BME280;19444;50.518;10.870;2022-07-24T03:15:21;97005.13;;;15.12;100.00
32933;BME280;19444;50.518;10.870;2022-07-24T03:18:18;97005.88;;;15.21;100.00
32933;BME280;19444;50.518;10.870;2022-07-24T03:21:18;97011.03;;;15.05;100.00
32933;BME280;19444;50.518;10.870;2022-07-24T03:24:36;97007.97;;;15.15;100.00
32933;BME280;19444;50.518;10.870;2022-07-24T03:27:33;97005.09;;;15.20;100.00
32933;BME280;19444;50.518;10.870;2022-07-24T03:30:30;97002.41;;;15.20;100.00
32933;BME280;19444;50.518;10.870;2022-07-24T03:33:28;96999.53;;;15.17;100.00
32933;BME280;19444;50.518;10.870;2022-07-24T03:36:25;97003.97;;;14.83;100.00
32933;BME280;19444;50.518;10.870;2022-07-24T03:39:22;97008.34;;;14.96;100.00
32933;BME280;19444;50.518;10.870;2022-07-24T03:42:19;97013.75;;;14.96;100.00
32933;BME280;19444;50.518;10.870;2022-07-24T03:45:15;97008.75;;;14.43;100.00
32933;BME280;19444;50.518;10.870;2022-07-24T03:48:13;97018.06;;;14.89;100.00
32933;BME280;19444;50.518;10.870;2022-07-24T03:51:10;97016.34;;;14.75;100.00
32933;BME280;19444;50.518;10.870;2022-07-24T03:54:07;97019.41;;;14.65;100.00
32933;BME280;19444;50.518;10.870;2022-07-24T03:57:04;97017.97;;;14.68;100.00
32933;BME280;19444;50.518;10.870;2022-07-24T04:00:05;97023.47;;;14.89;100.00
32933;BME280;19444;50.518;10.870;2022-07-24T04:03:02;97025.41;;;14.62;100.00
32933;BME280;19444;50.518;10.870;2022-07-24T04:06:04;97029.34;;;14.91;100.00
32933;BME280;19444;50.518;10.870;2022-07-24T04:09:04;97037.53;;;14.47;100.00
32933;BME280;19444;50.518;10.870;2022-07-24T04:12:01;97033.38;;;14.59;100.00
32933;BME280;19444;50.518;10.870;2022-07-24T04:14:58;97025.81;;;14.90;100.00
32933;BME280;19444;50.518;10.870;2022-07-24T04:17:55;97031.19;;;14.99;100.00
32933;BME280;19444;50.518;10.870;2022-07-24T04:20:52;97028.72;;;14.76;100.00
32933;BME280;19444;50.518;10.870;2022-07-24T04:23:49;97031.78;;;14.66;100.00
32933;BME280;19444;50.518;10.870;2022-07-24T04:26:46;97030.31;;;14.77;100.00
32933;BME280;19444;50.518;10.870;2022-07-24T04:29:43;97026.72;;;14.65;100.00
32933;BME280;19444;50.518;10.870;2022-07-24T04:32:40;97031.94;;;14.61;100.00
32933;BME280;19444;50.518;10.870;2022-07-24T04:35:37;97023.50;;;14.63;100.00
32933;BME280;19444;50.518;10.870;2022-07-24T04:38:34;97017.28;;;14.79;100.00
32933;BME280;19444;50.518;10.870;2022-07-24T04:41:31;97018.88;;;14.80;100.00
32933;BME280;19444;50.518;10.870;2022-07-24T04:44:28;97011.88;;;14.88;100.00
32933;BME280;19444;50.518;10.870;2022-07-24T04:47:25;97021.88;;;14.88;100.00
32933;BME280;19444;50.518;10.870;2022-07-24T04:50:22;97021.13;;;14.70;100.00
32933;BME280;19444;50.518;10.870;2022-07-24T04:53:19;97013.44;;;14.98;100.00
32933;BME280;19444;50.518;10.870;2022-07-24T04:56:16;97008.69;;;14.95;100.00
32933;BME280;19444;50.518;10.870;2022-07-24T04:59:13;97011.53;;;14.90;100.00
32933;BME280;19444;50.518;10.870;2022-07-24T05:02:10;97018.06;;;14.89;100.00
32933;BME280;19444;50.518;10.870;2022-07-24T05:05:07;97016.53;;;15.17;100.00
32933;BME280;19444;50.518;10.870;2022-07-24T05:08:04;97015.75;;;15.08;100.00
32933;BME280;19444;50.518;10.870;2022-07-24T05:11:01;97020.91;;;15.01;100.00
32933;BME280;19444;50.518;10.870;2022-07-24T05:13:58;97017.94;;;15.23;100.00
32933;BME280;19444;50.518;10.870;2022-07-24T05:16:55;97011.41;;;15.24;100.00
32933;BME280;19444;50.518;10.870;2022-07-24T05:19:52;97016.06;;;15.45;100.00
32933;BME280;19444;50.518;10.870;2022-07-24T05:22:49;97016.22;;;15.48;100.00
32933;BME280;19444;50.518;10.870;2022-07-24T05:25:46;97005.53;;;15.60;100.00
32933;BME280;19444;50.518;10.870;2022-07-24T05:28:45;97009.03;;;15.61;100.00
32933;BME280;19444;50.518;10.870;2022-07-24T05:31:42;97001.53;;;15.67;100.00
32933;BME280;19444;50.518;10.870;2022-07-24T05:34:39;97008.47;;;15.76;100.00
32933;BME280;19444;50.518;10.870;2022-07-24T05:37:37;97001.47;;;15.75;100.00
32933;BME280;19444;50.518;10.870;2022-07-24T05:40:34;97011.50;;;15.75;100.00
32933;BME280;19444;50.518;10.870;2022-07-24T05:43:31;96992.47;;;15.62;100.00
32933;BME280;19444;50.518;10.870;2022-07-24T05:46:28;96993.09;;;15.89;100.00
32933;BME280;19444;50.518;10.870;2022-07-24T05:49:25;96996.13;;;16.08;100.00
32933;BME280;19444;50.518;10.870;2022-07-24T05:52:22;96986.59;;;16.11;100.00
32933;BME280;19444;50.518;10.870;2022-07-24T05:55:19;96998.09;;;15.99;100.00
32933;BME280;19444;50.518;10.870;2022-07-24T05:58:17;96992.91;;;15.94;100.00
32933;BME280;19444;50.518;10.870;2022-07-24T06:01:14;96988.72;;;16.17;100.00
32933;BME280;19444;50.518;10.870;2022-07-24T06:04:11;96986.44;;;16.07;100.00
32933;BME280;19444;50.518;10.870;2022-07-24T06:07:10;96999.03;;;16.24;100.00
32933;BME280;19444;50.518;10.870;2022-07-24T06:10:08;96997.56;;;16.27;100.00
32933;BME280;19444;50.518;10.870;2022-07-24T06:13:08;96989.28;;;16.44;100.00
32933;BME280;19444;50.518;10.870;2022-07-24T06:16:06;96983.09;;;16.43;100.00
32933;BME280;19444;50.518;10.870;2022-07-24T06:19:03;96982.44;;;16.46;100.00
32933;BME280;19444;50.518;10.870;2022-07-24T06:22:00;96989.00;;;16.58;100.00
32933;BME280;19444;50.518;10.870;2022-07-24T06:24:57;96985.72;;;16.52;100.00
32933;BME280;19444;50.518;10.870;2022-07-24T06:27:54;96988.59;;;16.68;100.00
32933;BME280;19444;50.518;10.870;2022-07-24T06:30:51;96977.47;;;16.82;100.00
32933;BME280;19444;50.518;10.870;2022-07-24T06:33:48;96974.91;;;16.85;100.00
32933;BME280;19444;50.518;10.870;2022-07-24T06:36:45;96989.22;;;16.98;100.00
32933;BME280;19444;50.518;10.870;2022-07-24T06:39:41;96985.72;;;17.10;100.00
32933;BME280;19444;50.518;10.870;2022-07-24T06:42:38;96979.31;;;17.14;100.00
32933;BME280;19444;50.518;10.870;2022-07-24T06:45:35;96970.84;;;17.28;100.00
32933;BME280;19444;50.518;10.870;2022-07-24T06:48:33;96979.09;;;17.44;100.00
32933;BME280;19444;50.518;10.870;2022-07-24T06:51:30;96979.75;;;17.53;100.00
32933;BME280;19444;50.518;10.870;2022-07-24T06:54:27;96974.22;;;17.61;100.00
32933;BME280;19444;50.518;10.870;2022-07-24T06:57:24;96975.91;;;17.78;100.00
32933;BME280;19444;50.518;10.870;2022-07-24T07:00:22;96975.19;;;17.94;100.00
32933;BME280;19444;50.518;10.870;2022-07-24T07:03:19;96973.47;;;18.01;100.00
32933;BME280;19444;50.518;10.870;2022-07-24T07:06:16;96961.66;;;18.22;100.00
32933;BME280;19444;50.518;10.870;2022-07-24T07:09:13;96970.97;;;18.36;100.00
32933;BME280;19444;50.518;10.870;2022-07-24T07:12:10;96970.00;;;18.72;100.00
32933;BME280;19444;50.518;10.870;2022-07-24T07:15:09;96967.16;;;18.97;100.00
32933;BME280;19444;50.518;10.870;2022-07-24T07:18:06;96975.09;;;19.37;100.00
32933;BME280;19444;50.518;10.870;2022-07-24T07:21:04;96972.91;;;19.43;100.00
32933;BME280;19444;50.518;10.870;2022-07-24T07:24:01;96975.56;;;19.74;100.00
32933;BME280;19444;50.518;10.870;2022-07-24T07:26:57;96966.34;;;19.79;100.00
32933;BME280;19444;50.518;10.870;2022-07-24T07:29:54;96965.78;;;19.89;100.00
32933;BME280;19444;50.518;10.870;2022-07-24T07:32:51;96962.22;;;20.24;100.00
32933;BME280;19444;50.518;10.870;2022-07-24T07:35:48;96961.59;;;20.30;100.00
32933;BME280;19444;50.518;10.870;2022-07-24T07:38:46;96970.66;;;20.57;100.00
32933;BME280;19444;50.518;10.870;2022-07-24T07:41:43;96958.41;;;20.67;100.00
32933;BME280;19444;50.518;10.870;2022-07-24T07:44:39;96956.78;;;20.62;100.00
32933;BME280;19444;50.518;10.870;2022-07-24T07:47:37;96946.47;;;20.75;100.00
32933;BME280;19444;50.518;10.870;2022-07-24T07:50:34;96955.56;;;20.83;100.00
32933;BME280;19444;50.518;10.870;2022-07-24T07:53:31;96945.16;;;20.88;100.00
32933;BME280;19444;50.518;10.870;2022-07-24T07:56:27;96949.19;;;20.75;100.00
32933;BME280;19444;50.518;10.870;2022-07-24T07:59:27;96950.91;;;21.06;100.00
32933;BME280;19444;50.518;10.870;2022-07-24T08:02:24;96965.97;;;21.23;100.00
32933;BME280;19444;50.518;10.870;2022-07-24T08:05:21;96944.88;;;21.43;99.30
32933;BME280;19444;50.518;10.870;2022-07-24T08:08:18;96959.34;;;21.47;96.53
32933;BME280;19444;50.518;10.870;2022-07-24T08:11:16;96951.22;;;21.77;95.61
32933;BME280;19444;50.518;10.870;2022-07-24T08:14:13;96950.38;;;22.03;93.97
32933;BME280;19444;50.518;10.870;2022-07-24T08:17:10;96940.97;;;22.30;89.58
32933;BME280;19444;50.518;10.870;2022-07-24T08:20:09;96949.47;;;22.22;86.14
32933;BME280;19444;50.518;10.870;2022-07-24T08:23:06;96940.38;;;22.44;81.47
32933;BME280;19444;50.518;10.870;2022-07-24T08:26:03;96944.09;;;22.66;81.54
32933;BME280;19444;50.518;10.870;2022-07-24T08:29:00;96933.13;;;22.62;78.83
32933;BME280;19444;50.518;10.870;2022-07-24T08:31:58;96933.97;;;23.11;80.66
32933;BME280;19444;50.518;10.870;2022-07-24T08:34:55;96941.00;;;23.12;72.79
32933;BME280;19444;50.518;10.870;2022-07-24T08:37:52;96931.81;;;23.34;76.09
32933;BME280;19444;50.518;10.870;2022-07-24T08:40:50;96939.66;;;23.39;75.67
32933;BME280;19444;50.518;10.870;2022-07-24T08:43:47;96927.63;;;23.51;74.20
32933;BME280;19444;50.518;10.870;2022-07-24T08:46:44;96934.03;;;23.76;78.05
32933;BME280;19444;50.518;10.870;2022-07-24T08:49:44;96941.47;;;23.76;66.13
32933;BME280;19444;50.518;10.870;2022-07-24T08:52:43;96933.13;;;23.51;87.46
32933;BME280;19444;50.518;10.870;2022-07-24T08:55:41;96926.50;;;24.35;73.35
32933;BME280;19444;50.518;10.870;2022-07-24T08:58:40;96937.09;;;24.44;64.38
32933;BME280;19444;50.518;10.870;2022-07-24T09:01:39;96931.28;;;24.60;68.79
32933;BME280;19444;50.518;10.870;2022-07-24T09:04:42;96937.84;;;24.37;76.43
32933;BME280;19444;50.518;10.870;2022-07-24T09:07:39;96931.25;;;24.53;68.92
32933;BME280;19444;50.518;10.870;2022-07-24T09:10:36;96934.84;;;25.00;77.45
32933;BME280;19444;50.518;10.870;2022-07-24T09:13:34;96934.44;;;24.94;68.00
32933;BME280;19444;50.518;10.870;2022-07-24T09:16:49;96928.97;;;24.90;64.75
32933;BME280;19444;50.518;10.870;2022-07-24T09:19:56;96912.91;;;25.00;81.51
32933;BME280;19444;50.518;10.870;2022-07-24T09:22:57;96923.44;;;25.65;76.60
32933;BME280;19444;50.518;10.870;2022-07-24T09:26:02;96928.94;;;25.65;63.08
32933;BME280;19444;50.518;10.870;2022-07-24T09:28:59;96918.63;;;26.08;75.57
32933;BME280;19444;50.518;10.870;2022-07-24T09:32:00;96916.41;;;25.61;59.58
32933;BME280;19444;50.518;10.870;2022-07-24T09:34:58;96930.38;;;26.16;64.55
32933;BME280;19444;50.518;10.870;2022-07-24T09:37:57;96928.09;;;25.86;60.61
32933;BME280;19444;50.518;10.870;2022-07-24T09:40:57;96927.19;;;26.25;59.31
32933;BME280;19444;50.518;10.870;2022-07-24T09:44:00;96923.81;;;26.73;65.69
32933;BME280;19444;50.518;10.870;2022-07-24T09:47:04;96931.16;;;26.17;61.25
32933;BME280;19444;50.518;10.870;2022-07-24T09:50:16;96912.81;;;25.85;56.86
32933;BME280;19444;50.518;10.870;2022-07-24T09:53:13;96924.47;;;26.14;58.79
32933;BME280;19444;50.518;10.870;2022-07-24T09:56:15;96922.41;;;26.36;53.96
32933;BME280;19444;50.518;10.870;2022-07-24T09:59:12;96917.78;;;26.92;63.68
32933;BME280;19444;50.518;10.870;2022-07-24T10:02:15;96912.34;;;26.78;52.33
32933;BME280;19444;50.518;10.870;2022-07-24T10:05:13;96913.06;;;26.92;50.70
32933;BME280;19444;50.518;10.870;2022-07-24T10:08:17;96903.22;;;27.40;61.34
32933;BME280;19444;50.518;10.870;2022-07-24T10:11:15;96908.78;;;27.36;53.89
32933;BME280;19444;50.518;10.870;2022-07-24T10:14:13;96915.25;;;26.56;50.29
32933;BME280;19444;50.518;10.870;2022-07-24T10:17:11;96913.22;;;26.68;49.20
32933;BME280;19444;50.518;10.870;2022-07-24T10:27:04;96888.84;;;27.97;48.49
32933;BME280;19444;50.518;10.870;2022-07-24T10:30:09;96880.16;;;28.02;48.97
32933;BME280;19444;50.518;10.870;2022-07-24T10:33:06;96878.44;;;28.12;51.68
32933;BME280;19444;50.518;10.870;2022-07-24T10:36:15;96875.09;;;28.27;48.25
32933;BME280;19444;50.518;10.870;2022-07-24T10:39:39;96877.84;;;27.97;47.36
32933;BME280;19444;50.518;10.870;2022-07-24T10:46:11;96885.03;;;27.91;46.74
32933;BME280;19444;50.518;10.870;2022-07-24T10:49:38;96873.44;;;28.03;45.33
32933;BME280;19444;50.518;10.870;2022-07-24T10:52:36;96869.69;;;28.20;45.90
32933;BME280;19444;50.518;10.870;2022-07-24T10:55:36;96864.19;;;29.01;53.87
32933;BME280;19444;50.518;10.870;2022-07-24T11:02:30;96864.19;;;29.01;44.58
32933;BME280;19444;50.518;10.870;2022-07-24T11:05:35;96862.66;;;28.97;58.15
32933;BME280;19444;50.518;10.870;2022-07-24T11:08:49;96851.91;;;29.89;42.47
32933;BME280;19444;50.518;10.870;2022-07-24T11:14:52;96848.44;;;27.90;51.45
32933;BME280;19444;50.518;10.870;2022-07-24T11:17:49;96846.34;;;29.06;44.36
32933;BME280;19444;50.518;10.870;2022-07-24T11:20:46;96843.41;;;29.80;41.54
32933;BME280;19444;50.518;10.870;2022-07-24T11:27:17;96840.84;;;30.28;40.39
32933;BME280;19444;50.518;10.870;2022-07-24T11:30:17;96840.09;;;30.61;44.66
32933;BME280;19444;50.518;10.870;2022-07-24T11:33:20;96845.19;;;29.70;43.01
32933;BME280;19444;50.518;10.870;2022-07-24T11:36:18;96829.34;;;30.30;41.71
32933;BME280;19444;50.518;10.870;2022-07-24T11:39:15;96831.00;;;30.60;45.16
32933;BME280;19444;50.518;10.870;2022-07-24T11:42:16;96822.50;;;30.35;42.81
32933;BME280;19444;50.518;10.870;2022-07-24T11:45:13;96827.19;;;29.62;37.93
32933;BME280;19444;50.518;10.870;2022-07-24T11:48:20;96810.72;;;30.67;50.51
32933;BME280;19444;50.518;10.870;2022-07-24T11:51:24;96816.53;;;31.18;41.68
32933;BME280;19444;50.518;10.870;2022-07-24T11:54:29;96811.50;;;30.15;39.67
32933;BME280;19444;50.518;10.870;2022-07-24T11:57:29;96816.78;;;30.25;39.32
32933;BME280;19444;50.518;10.870;2022-07-24T12:00:46;96799.66;;;29.58;38.74
32933;BME280;19444;50.518;10.870;2022-07-24T12:03:57;96806.47;;;30.46;38.21
32933;BME280;19444;50.518;10.870;2022-07-24T12:06:55;96799.53;;;30.38;37.62
32933;BME280;19444;50.518;10.870;2022-07-24T12:09:58;96792.69;;;31.07;35.46
32933;BME280;19444;50.518;10.870;2022-07-24T12:12:56;96798.00;;;30.37;37.80
32933;BME280;19444;50.518;10.870;2022-07-24T12:15:53;96800.75;;;29.41;38.48
32933;BME280;19444;50.518;10.870;2022-07-24T12:18:51;96795.44;;;30.10;36.73
32933;BME280;19444;50.518;10.870;2022-07-24T12:21:51;96793.47;;;30.10;37.37
32933;BME280;19444;50.518;10.870;2022-07-24T12:24:50;96772.00;;;30.83;39.83
32933;BME280;19444;50.518;10.870;2022-07-24T12:27:47;96761.84;;;31.38;36.96
32933;BME280;19444;50.518;10.870;2022-07-24T12:30:49;96763.69;;;31.28;38.19
32933;BME280;19444;50.518;10.870;2022-07-24T12:33:53;96765.38;;;29.76;39.76
32933;BME280;19444;50.518;10.870;2022-07-24T12:36:51;96759.22;;;30.04;37.61
32933;BME280;19444;50.518;10.870;2022-07-24T12:39:51;96761.22;;;32.01;41.51
32933;BME280;19444;50.518;10.870;2022-07-24T12:43:09;96754.31;;;30.93;35.33
32933;BME280;19444;50.518;10.870;2022-07-24T12:46:10;96756.34;;;31.63;37.19
32933;BME280;19444;50.518;10.870;2022-07-24T12:52:27;96749.75;;;30.54;36.38
32933;BME280;19444;50.518;10.870;2022-07-24T12:55:25;96747.38;;;31.59;33.91
32933;BME280;19444;50.518;10.870;2022-07-24T12:58:22;96735.03;;;31.77;32.49
32933;BME280;19444;50.518;10.870;2022-07-24T13:01:21;96734.00;;;32.60;33.35
32933;BME280;19444;50.518;10.870;2022-07-24T13:04:20;96733.81;;;32.16;31.49
32933;BME280;19444;50.518;10.870;2022-07-24T13:07:20;96737.50;;;32.73;34.99
32933;BME280;19444;50.518;10.870;2022-07-24T13:10:18;96742.84;;;31.24;35.08
32933;BME280;19444;50.518;10.870;2022-07-24T13:13:15;96743.28;;;30.44;36.02
32933;BME280;19444;50.518;10.870;2022-07-24T13:16:11;96733.59;;;30.85;35.40
32933;BME280;19444;50.518;10.870;2022-07-24T13:19:09;96723.28;;;31.43;33.06
32933;BME280;19444;50.518;10.870;2022-07-24T13:22:07;96718.19;;;31.84;33.81
32933;BME280;19444;50.518;10.870;2022-07-24T13:25:05;96717.25;;;32.50;35.22
32933;BME280;19444;50.518;10.870;2022-07-24T13:28:02;96716.56;;;31.57;35.33
32933;BME280;19444;50.518;10.870;2022-07-24T13:31:09;96701.44;;;32.13;33.96
32933;BME280;19444;50.518;10.870;2022-07-24T13:34:06;96707.53;;;32.20;32.86
32933;BME280;19444;50.518;10.870;2022-07-24T13:37:07;96705.28;;;33.10;33.57
32933;BME280;19444;50.518;10.870;2022-07-24T13:40:06;96709.97;;;32.06;33.53
32933;BME280;19444;50.518;10.870;2022-07-24T13:43:03;96698.97;;;31.89;33.26
32933;BME280;19444;50.518;10.870;2022-07-24T13:46:00;96698.88;;;31.93;31.97
32933;BME280;19444;50.518;10.870;2022-07-24T13:49:00;96701.31;;;32.76;33.44
32933;BME280;19444;50.518;10.870;2022-07-24T13:51:57;96705.94;;;32.45;31.96
32933;BME280;19444;50.518;10.870;2022-07-24T13:54:54;96698.44;;;32.20;31.14
32933;BME280;19444;50.518;10.870;2022-07-24T13:57:52;96693.88;;;32.13;34.98
32933;BME280;19444;50.518;10.870;2022-07-24T14:00:50;96691.56;;;31.99;34.49
32933;BME280;19444;50.518;10.870;2022-07-24T14:03:52;96677.91;;;32.05;33.21
32933;BME280;19444;50.518;10.870;2022-07-24T14:07:09;96668.19;;;32.82;35.64
32933;BME280;19444;50.518;10.870;2022-07-24T14:10:07;96658.09;;;33.10;30.50
32933;BME280;19444;50.518;10.870;2022-07-24T14:13:04;96669.19;;;32.88;32.82
32933;BME280;19444;50.518;10.870;2022-07-24T14:16:01;96665.34;;;32.86;31.37
32933;BME280;19444;50.518;10.870;2022-07-24T14:18:59;96669.47;;;32.68;32.26
32933;BME280;19444;50.518;10.870;2022-07-24T14:21:57;96670.81;;;32.64;33.38
32933;BME280;19444;50.518;10.870;2022-07-24T14:24:54;96667.41;;;31.87;34.32
32933;BME280;19444;50.518;10.870;2022-07-24T14:27:51;96666.03;;;32.30;31.48
32933;BME280;19444;50.518;10.870;2022-07-24T14:30:47;96666.47;;;32.28;31.73
32933;BME280;19444;50.518;10.870;2022-07-24T14:33:44;96654.22;;;32.86;32.08
32933;BME280;19444;50.518;10.870;2022-07-24T14:36:41;96653.63;;;32.91;31.73
32933;BME280;19444;50.518;10.870;2022-07-24T14:39:38;96653.72;;;30.71;35.44
32933;BME280;19444;50.518;10.870;2022-07-24T14:42:36;96656.13;;;29.55;35.10
32933;BME280;19444;50.518;10.870;2022-07-24T14:45:33;96656.09;;;29.18;36.94
32933;BME280;19444;50.518;10.870;2022-07-24T14:48:29;96650.44;;;29.62;38.53
32933;BME280;19444;50.518;10.870;2022-07-24T14:51:26;96635.47;;;31.15;34.33
32933;BME280;19444;50.518;10.870;2022-07-24T14:54:23;96629.69;;;31.64;32.58
32933;BME280;19444;50.518;10.870;2022-07-24T14:57:20;96634.78;;;31.27;33.54
32933;BME280;19444;50.518;10.870;2022-07-24T15:00:17;96620.59;;;32.02;33.88
32933;BME280;19444;50.518;10.870;2022-07-24T15:03:14;96623.44;;;32.23;34.79
32933;BME280;19444;50.518;10.870;2022-07-24T15:06:11;96621.22;;;32.18;33.46
32933;BME280;19444;50.518;10.870;2022-07-24T15:09:09;96618.91;;;32.86;34.73
32933;BME280;19444;50.518;10.870;2022-07-24T15:12:06;96608.56;;;32.17;32.98
32933;BME280;19444;50.518;10.870;2022-07-24T15:15:04;96606.66;;;31.92;34.29
32933;BME280;19444;50.518;10.870;2022-07-24T15:18:00;96598.78;;;32.25;33.87
32933;BME280;19444;50.518;10.870;2022-07-24T15:20:57;96609.53;;;31.38;34.21
32933;BME280;19444;50.518;10.870;2022-07-24T15:23:54;96602.06;;;30.35;35.36
32933;BME280;19444;50.518;10.870;2022-07-24T15:26:51;96604.97;;;31.95;31.56
32933;BME280;19444;50.518;10.870;2022-07-24T15:29:48;96597.34;;;31.86;31.19
32933;BME280;19444;50.518;10.870;2022-07-24T15:32:45;96595.75;;;31.34;32.86
32933;BME280;19444;50.518;10.870;2022-07-24T15:35:42;96587.91;;;31.58;36.58
32933;BME280;19444;50.518;10.870;2022-07-24T15:38:39;96580.06;;;32.17;31.33
32933;BME280;19444;50.518;10.870;2022-07-24T15:41:37;96584.69;;;31.85;31.27
32933;BME280;19444;50.518;10.870;2022-07-24T15:44:34;96589.78;;;31.74;33.55
32933;BME280;19444;50.518;10.870;2022-07-24T15:47:32;96581.59;;;31.32;32.57
32933;BME280;19444;50.518;10.870;2022-07-24T15:50:29;96577.59;;;31.33;32.31